sensor_id;sensor_type;location;lat;lon;timestamp;pressure;altitude;pressure_sealevel;temperature;humidity
69624;BME280;56843;52.020;5.670;2023-03-14T00:01:15;98666.72;;;13.60;62.72
69624;BME280;56843;52.020;5.670;2023-03-14T00:02:51;98666.72;;;13.60;62.40
69624;BME280;56843;52.020;5.670;2023-03-14T00:04:22;98667.84;;;13.59;62.34
69624;BME280;56843;52.020;5.670;2023-03-14T00:05:52;98676.25;;;13.61;62.48
69624;BME280;56843;52.020;5.670;2023-03-14T00:07:23;98682.41;;;13.62;62.42
69624;BME280;56843;52.020;5.670;2023-03-14T00:08:54;98670.91;;;13.61;62.61
69624;BME280;56843;52.020;5.670;2023-03-14T00:10:25;98682.41;;;13.62;62.55
69624;BME280;56843;52.020;5.670;2023-03-14T00:11:56;98675.13;;;13.62;62.89
69624;BME280;56843;52.020;5.670;2023-03-14T00:13:27;98681.63;;;13.61;62.79
69624;BME280;56843;52.020;5.670;2023-03-14T00:14:57;98671.66;;;13.62;62.68
69624;BME280;56843;52.020;5.670;2023-03-14T00:16:29;98667.06;;;13.62;62.89
69624;BME280;56843;52.020;5.670;2023-03-14T00:18:00;98683.53;;;13.64;62.71
69624;BME280;56843;52.020;5.670;2023-03-14T00:19:30;98675.47;;;13.64;63.11
69624;BME280;56843;52.020;5.670;2023-03-14T00:21:02;98672.81;;;13.64;62.89
69624;BME280;56843;52.020;5.670;2023-03-14T00:22:42;98675.47;;;13.64;63.11
69624;BME280;56843;52.020;5.670;2023-03-14T00:24:13;98671.28;;;13.63;63.04
69624;BME280;56843;52.020;5.670;2023-03-14T00:25:43;98673.97;;;13.63;63.20
69624;BME280;56843;52.020;5.670;2023-03-14T00:27:14;98684.72;;;13.63;62.96
69624;BME280;56843;52.020;5.670;2023-03-14T00:28:45;98674.72;;;13.64;63.14
69624;BME280;56843;52.020;5.670;2023-03-14T00:30:16;98684.72;;;13.63;63.17
69624;BME280;56843;52.020;5.670;2023-03-14T00:31:47;98684.72;;;13.63;62.98
69624;BME280;56843;52.020;5.670;2023-03-14T00:33:17;98685.84;;;13.62;63.31
69624;BME280;56843;52.020;5.670;2023-03-14T00:34:48;98683.16;;;13.62;63.18
69624;BME280;56843;52.020;5.670;2023-03-14T00:36:18;98683.94;;;13.63;63.14
69624;BME280;56843;52.020;5.670;2023-03-14T00:37:50;98680.47;;;13.62;63.31
69624;BME280;56843;52.020;5.670;2023-03-14T00:39:21;98677.81;;;13.62;63.40
69624;BME280;56843;52.020;5.670;2023-03-14T00:40:52;98671.66;;;13.62;63.14
69624;BME280;56843;52.020;5.670;2023-03-14T00:42:22;98673.56;;;13.61;63.30
69624;BME280;56843;52.020;5.670;2023-03-14T00:43:54;98669.38;;;13.60;63.45
69624;BME280;56843;52.020;5.670;2023-03-14T00:45:25;98674.75;;;13.60;63.51
69624;BME280;56843;52.020;5.670;2023-03-14T00:46:55;98662.47;;;13.59;63.11
69624;BME280;56843;52.020;5.670;2023-03-14T00:48:27;98682.03;;;13.60;63.41
69624;BME280;56843;52.020;5.670;2023-03-14T00:49:57;98681.66;;;13.58;63.00
69624;BME280;56843;52.020;5.670;2023-03-14T00:51:28;98691.63;;;13.57;63.35
69624;BME280;56843;52.020;5.670;2023-03-14T00:52:59;98687.03;;;13.58;63.38
69624;BME280;56843;52.020;5.670;2023-03-14T00:54:30;98687.03;;;13.58;63.13
69624;BME280;56843;52.020;5.670;2023-03-14T00:56:05;98687.03;;;13.58;63.29
69624;BME280;56843;52.020;5.670;2023-03-14T00:57:36;98696.63;;;13.55;63.16
69624;BME280;56843;52.020;5.670;2023-03-14T00:59:06;98680.94;;;13.54;63.38
69624;BME280;56843;52.020;5.670;2023-03-14T01:00:37;98683.97;;;13.56;63.12
69624;BME280;56843;52.020;5.670;2023-03-14T01:02:07;98688.56;;;13.55;63.05
69624;BME280;56843;52.020;5.670;2023-03-14T01:03:38;98691.25;;;13.55;63.12
69624;BME280;56843;52.020;5.670;2023-03-14T01:05:08;98696.25;;;13.53;63.10
69624;BME280;56843;52.020;5.670;2023-03-14T01:06:40;98681.31;;;13.52;62.85
69624;BME280;56843;52.020;5.670;2023-03-14T01:08:11;98681.31;;;13.52;62.58
69624;BME280;56843;52.020;5.670;2023-03-14T01:09:42;98671.75;;;13.51;62.46
69624;BME280;56843;52.020;5.670;2023-03-14T01:11:16;98678.25;;;13.54;62.38
69624;BME280;56843;52.020;5.670;2023-03-14T01:12:47;98692.06;;;13.52;62.12
69624;BME280;56843;52.020;5.670;2023-03-14T01:14:18;98682.06;;;13.53;62.12
69624;BME280;56843;52.020;5.670;2023-03-14T01:15:48;98689.38;;;13.52;62.22
69624;BME280;56843;52.020;5.670;2023-03-14T01:17:18;98685.91;;;13.52;61.85
69624;BME280;56843;52.020;5.670;2023-03-14T01:18:49;98695.09;;;13.54;62.00
69624;BME280;56843;52.020;5.670;2023-03-14T01:20:20;98688.59;;;13.52;61.78
69624;BME280;56843;52.020;5.670;2023-03-14T01:21:51;98692.78;;;13.53;61.92
69624;BME280;56843;52.020;5.670;2023-03-14T01:23:21;98702.78;;;13.52;61.72
69624;BME280;56843;52.020;5.670;2023-03-14T01:24:52;98705.47;;;13.52;61.84
69624;BME280;56843;52.020;5.670;2023-03-14T01:26:24;98700.84;;;13.53;61.42
69624;BME280;56843;52.020;5.670;2023-03-14T01:27:55;98711.19;;;13.54;61.46
69624;BME280;56843;52.020;5.670;2023-03-14T01:29:26;98716.56;;;13.54;61.37
69624;BME280;56843;52.020;5.670;2023-03-14T01:31:02;98716.16;;;13.56;61.44
69624;BME280;56843;52.020;5.670;2023-03-14T01:32:33;98704.69;;;13.52;61.67
69624;BME280;56843;52.020;5.670;2023-03-14T01:34:04;98716.19;;;13.52;61.46
69624;BME280;56843;52.020;5.670;2023-03-14T01:35:34;98707.38;;;13.52;61.58
69624;BME280;56843;52.020;5.670;2023-03-14T01:37:05;98712.38;;;13.50;61.48
69624;BME280;56843;52.020;5.670;2023-03-14T01:38:38;98707.38;;;13.48;61.74
69624;BME280;56843;52.020;5.670;2023-03-14T01:40:11;98710.84;;;13.45;61.78
69624;BME280;56843;52.020;5.670;2023-03-14T01:41:41;98717.72;;;13.46;61.79
69624;BME280;56843;52.020;5.670;2023-03-14T01:43:18;98707.00;;;13.46;61.98
69624;BME280;56843;52.020;5.670;2023-03-14T01:48:06;98710.13;;;13.41;61.96
69624;BME280;56843;52.020;5.670;2023-03-14T01:49:37;98704.75;;;13.41;61.92
69624;BME280;56843;52.020;5.670;2023-03-14T01:51:21;98697.09;;;13.40;62.03
69624;BME280;56843;52.020;5.670;2023-03-14T01:52:52;98713.56;;;13.38;62.23
69624;BME280;56843;52.020;5.670;2023-03-14T01:56:05;98710.53;;;13.36;62.31
69624;BME280;56843;52.020;5.670;2023-03-14T01:57:40;98712.84;;;13.34;62.17
69624;BME280;56843;52.020;5.670;2023-03-14T01:59:11;98712.84;;;13.34;61.91
69624;BME280;56843;52.020;5.670;2023-03-14T02:02:36;98700.19;;;13.31;62.10
69624;BME280;56843;52.020;5.670;2023-03-14T02:04:08;98707.47;;;13.31;62.17
69624;BME280;56843;52.020;5.670;2023-03-14T02:05:41;98697.16;;;13.29;62.12
69624;BME280;56843;52.020;5.670;2023-03-14T02:07:23;98700.97;;;13.28;62.31
69624;BME280;56843;52.020;5.670;2023-03-14T02:09:05;98692.56;;;13.26;62.30
69624;BME280;56843;52.020;5.670;2023-03-14T02:10:41;98692.97;;;13.24;62.49
69624;BME280;56843;52.020;5.670;2023-03-14T02:12:15;98682.63;;;13.23;62.50
69624;BME280;56843;52.020;5.670;2023-03-14T02:13:51;98684.56;;;13.22;62.53
69624;BME280;56843;52.020;5.670;2023-03-14T02:15:40;98680.31;;;13.21;62.49
69624;BME280;56843;52.020;5.670;2023-03-14T02:17:37;98678.44;;;13.18;62.68
69624;BME280;56843;52.020;5.670;2023-03-14T02:20:03;98684.56;;;13.19;62.47
69624;BME280;56843;52.020;5.670;2023-03-14T02:21:49;98696.06;;;13.16;62.64
69624;BME280;56843;52.020;5.670;2023-03-14T02:23:36;98691.84;;;13.15;62.78
69624;BME280;56843;52.020;5.670;2023-03-14T02:27:13;98695.31;;;13.12;62.88
69624;BME280;56843;52.020;5.670;2023-03-14T02:28:51;98688.41;;;13.11;62.69
69624;BME280;56843;52.020;5.670;2023-03-14T02:30:26;98678.88;;;13.10;62.87
69624;BME280;56843;52.020;5.670;2023-03-14T02:31:57;98682.28;;;13.10;62.94
69624;BME280;56843;52.020;5.670;2023-03-14T02:33:27;98677.72;;;13.11;62.76
69624;BME280;56843;52.020;5.670;2023-03-14T02:35:00;98679.63;;;13.10;62.91
69624;BME280;56843;52.020;5.670;2023-03-14T02:36:31;98668.16;;;13.10;62.96
69624;BME280;56843;52.020;5.670;2023-03-14T02:38:04;98663.94;;;13.09;62.96
69624;BME280;56843;52.020;5.670;2023-03-14T02:39:43;98649.03;;;13.08;63.20
69624;BME280;56843;52.020;5.670;2023-03-14T02:41:16;98655.13;;;13.08;63.45
69624;BME280;56843;52.020;5.670;2023-03-14T02:42:52;98661.66;;;13.07;62.83
69624;BME280;56843;52.020;5.670;2023-03-14T02:44:22;98662.03;;;13.06;62.95
69624;BME280;56843;52.020;5.670;2023-03-14T02:45:54;98667.38;;;13.06;63.10
69624;BME280;56843;52.020;5.670;2023-03-14T02:47:29;98657.44;;;13.06;63.04
69624;BME280;56843;52.020;5.670;2023-03-14T02:49:05;98652.06;;;13.06;63.24
69624;BME280;56843;52.020;5.670;2023-03-14T02:50:38;98657.06;;;13.04;63.08
69624;BME280;56843;52.020;5.670;2023-03-14T02:52:09;98653.63;;;13.04;63.39
69624;BME280;56843;52.020;5.670;2023-03-14T02:53:40;98664.34;;;13.04;63.22
69624;BME280;56843;52.020;5.670;2023-03-14T02:55:19;98658.59;;;13.02;63.17
69624;BME280;56843;52.020;5.670;2023-03-14T02:56:50;98649.44;;;13.03;63.79
69624;BME280;56843;52.020;5.670;2023-03-14T02:58:20;98649.06;;;13.01;63.68
69624;BME280;56843;52.020;5.670;2023-03-14T02:59:58;98650.56;;;13.02;63.25
69624;BME280;56843;52.020;5.670;2023-03-14T03:01:30;98651.34;;;13.02;63.62
69624;BME280;56843;52.020;5.670;2023-03-14T03:03:00;98650.56;;;13.02;63.18
69624;BME280;56843;52.020;5.670;2023-03-14T03:04:31;98652.50;;;13.01;63.45
69624;BME280;56843;52.020;5.670;2023-03-14T03:06:02;98646.38;;;13.01;63.33
69624;BME280;56843;52.020;5.670;2023-03-14T03:07:32;98638.72;;;12.99;63.14
69624;BME280;56843;52.020;5.670;2023-03-14T03:09:03;98657.09;;;13.01;63.52
69624;BME280;56843;52.020;5.670;2023-03-14T03:10:34;98644.06;;;12.99;63.18
69624;BME280;56843;52.020;5.670;2023-03-14T03:12:05;98641.38;;;12.99;63.37
69624;BME280;56843;52.020;5.670;2023-03-14T03:13:36;98640.66;;;12.99;63.68
69624;BME280;56843;52.020;5.670;2023-03-14T03:15:08;98639.88;;;12.98;63.27
69624;BME280;56843;52.020;5.670;2023-03-14T03:16:40;98639.50;;;12.96;63.36
69624;BME280;56843;52.020;5.670;2023-03-14T03:18:11;98643.69;;;12.97;63.41
69624;BME280;56843;52.020;5.670;2023-03-14T03:19:42;98629.16;;;12.95;63.39
69624;BME280;56843;52.020;5.670;2023-03-14T03:21:14;98635.28;;;12.95;63.62
69624;BME280;56843;52.020;5.670;2023-03-14T03:22:47;98645.22;;;12.95;63.79
69624;BME280;56843;52.020;5.670;2023-03-14T03:24:19;98624.59;;;12.92;63.66
69624;BME280;56843;52.020;5.670;2023-03-14T03:25:51;98625.38;;;12.92;63.45
69624;BME280;56843;52.020;5.670;2023-03-14T03:27:21;98628.06;;;12.92;63.63
69624;BME280;56843;52.020;5.670;2023-03-14T03:28:52;98629.97;;;12.92;63.47
69624;BME280;56843;52.020;5.670;2023-03-14T03:30:23;98620.38;;;12.91;63.52
69624;BME280;56843;52.020;5.670;2023-03-14T03:31:53;98621.56;;;12.90;63.74
69624;BME280;56843;52.020;5.670;2023-03-14T03:33:24;98631.09;;;12.91;63.71
69624;BME280;56843;52.020;5.670;2023-03-14T03:34:55;98624.59;;;12.88;63.85
69624;BME280;56843;52.020;5.670;2023-03-14T03:36:26;98628.41;;;12.91;63.35
69624;BME280;56843;52.020;5.670;2023-03-14T03:37:56;98623.09;;;12.87;63.46
69624;BME280;56843;52.020;5.670;2023-03-14T03:39:26;98631.13;;;12.87;63.80
69624;BME280;56843;52.020;5.670;2023-03-14T03:40:57;98632.25;;;12.90;63.63
69624;BME280;56843;52.020;5.670;2023-03-14T03:42:30;98631.91;;;12.88;63.89
69624;BME280;56843;52.020;5.670;2023-03-14T03:44:01;98622.31;;;12.87;63.84
69624;BME280;56843;52.020;5.670;2023-03-14T03:45:31;98628.44;;;12.87;63.37
69624;BME280;56843;52.020;5.670;2023-03-14T03:47:02;98620.41;;;12.87;63.87
69624;BME280;56843;52.020;5.670;2023-03-14T03:48:33;98612.38;;;12.87;63.81
69624;BME280;56843;52.020;5.670;2023-03-14T03:50:07;98616.97;;;12.87;63.82
69624;BME280;56843;52.020;5.670;2023-03-14T03:51:39;98615.81;;;12.88;63.78
69624;BME280;56843;52.020;5.670;2023-03-14T03:53:10;98621.19;;;12.88;63.34
69624;BME280;56843;52.020;5.670;2023-03-14T03:54:40;98618.50;;;12.88;63.74
69624;BME280;56843;52.020;5.670;2023-03-14T03:56:11;98620.41;;;12.87;63.39
69624;BME280;56843;52.020;5.670;2023-03-14T03:57:42;98616.97;;;12.87;63.47
69624;BME280;56843;52.020;5.670;2023-03-14T03:59:12;98617.72;;;12.87;63.51
69624;BME280;56843;52.020;5.670;2023-03-14T04:00:43;98618.50;;;12.88;63.67
69624;BME280;56843;52.020;5.670;2023-03-14T04:02:13;98610.84;;;12.86;63.31
69624;BME280;56843;52.020;5.670;2023-03-14T04:03:43;98613.50;;;12.86;63.54
69624;BME280;56843;52.020;5.670;2023-03-14T04:05:14;98616.97;;;12.87;63.71
69624;BME280;56843;52.020;5.670;2023-03-14T04:06:51;98621.56;;;12.86;63.73
69624;BME280;56843;52.020;5.670;2023-03-14T04:08:22;98619.63;;;12.87;63.65
69624;BME280;56843;52.020;5.670;2023-03-14T04:09:52;98619.63;;;12.87;63.45
69624;BME280;56843;52.020;5.670;2023-03-14T04:11:37;98618.13;;;12.86;63.47
69624;BME280;56843;52.020;5.670;2023-03-14T04:13:23;98618.88;;;12.86;63.54
69624;BME280;56843;52.020;5.670;2023-03-14T04:14:57;98619.28;;;12.85;63.39
69624;BME280;56843;52.020;5.670;2023-03-14T04:16:27;98610.84;;;12.86;63.21
69624;BME280;56843;52.020;5.670;2023-03-14T04:18:05;98604.72;;;12.86;63.72
69624;BME280;56843;52.020;5.670;2023-03-14T04:19:36;98605.47;;;12.86;63.29
69624;BME280;56843;52.020;5.670;2023-03-14T04:21:06;98608.94;;;12.87;63.60
69624;BME280;56843;52.020;5.670;2023-03-14T04:22:46;98608.94;;;12.87;63.26
69624;BME280;56843;52.020;5.670;2023-03-14T04:24:17;98607.03;;;12.87;63.55
69624;BME280;56843;52.020;5.670;2023-03-14T04:25:52;98607.78;;;12.88;63.38
69624;BME280;56843;52.020;5.670;2023-03-14T04:27:24;98617.34;;;12.89;63.54
69624;BME280;56843;52.020;5.670;2023-03-14T04:28:55;98610.06;;;12.89;63.40
69624;BME280;56843;52.020;5.670;2023-03-14T04:30:27;98608.16;;;12.90;63.21
69624;BME280;56843;52.020;5.670;2023-03-14T04:32:01;98610.06;;;12.89;63.31
69624;BME280;56843;52.020;5.670;2023-03-14T04:33:31;98615.78;;;12.91;63.44
69624;BME280;56843;52.020;5.670;2023-03-14T04:35:02;98607.00;;;12.91;63.51
69624;BME280;56843;52.020;5.670;2023-03-14T04:36:32;98612.34;;;12.91;63.54
69624;BME280;56843;52.020;5.670;2023-03-14T04:38:07;98604.31;;;12.91;63.34
69624;BME280;56843;52.020;5.670;2023-03-14T04:39:38;98605.84;;;12.92;63.59
69624;BME280;56843;52.020;5.670;2023-03-14T04:41:15;98606.63;;;12.92;63.23
69624;BME280;56843;52.020;5.670;2023-03-14T04:42:46;98605.44;;;12.93;63.45
69624;BME280;56843;52.020;5.670;2023-03-14T04:44:17;98611.56;;;12.94;63.20
69624;BME280;56843;52.020;5.670;2023-03-14T04:45:48;98606.22;;;12.94;63.37
69624;BME280;56843;52.020;5.670;2023-03-14T04:47:18;98606.22;;;12.94;63.19
69624;BME280;56843;52.020;5.670;2023-03-14T04:48:51;98609.25;;;12.96;63.17
69624;BME280;56843;52.020;5.670;2023-03-14T04:50:22;98604.69;;;12.96;63.43
69624;BME280;56843;52.020;5.670;2023-03-14T04:51:53;98604.69;;;12.96;63.42
69624;BME280;56843;52.020;5.670;2023-03-14T04:53:25;98604.69;;;12.96;63.08
69624;BME280;56843;52.020;5.670;2023-03-14T04:54:58;98598.91;;;12.98;62.56
69624;BME280;56843;52.020;5.670;2023-03-14T04:56:31;98600.81;;;12.97;63.15
69624;BME280;56843;52.020;5.670;2023-03-14T04:58:05;98601.59;;;12.98;63.18
69624;BME280;56843;52.020;5.670;2023-03-14T04:59:36;98601.59;;;12.98;62.95
69624;BME280;56843;52.020;5.670;2023-03-14T05:01:25;98593.56;;;12.98;62.97
69624;BME280;56843;52.020;5.670;2023-03-14T05:03:15;98579.78;;;12.96;62.99
69624;BME280;56843;52.020;5.670;2023-03-14T05:05:12;98598.19;;;12.94;63.02
69624;BME280;56843;52.020;5.670;2023-03-14T05:06:51;98593.59;;;12.94;62.85
69624;BME280;56843;52.020;5.670;2023-03-14T05:08:45;98584.78;;;12.94;63.13
69624;BME280;56843;52.020;5.670;2023-03-14T05:10:25;98594.34;;;12.95;62.86
69624;BME280;56843;52.020;5.670;2023-03-14T05:12:11;98580.56;;;12.93;62.87
69624;BME280;56843;52.020;5.670;2023-03-14T05:14:04;98583.25;;;12.93;62.92
69624;BME280;56843;52.020;5.670;2023-03-14T05:15:48;98579.81;;;12.92;63.07
69624;BME280;56843;52.020;5.670;2023-03-14T05:17:29;98585.94;;;12.93;63.00
69624;BME280;56843;52.020;5.670;2023-03-14T05:19:18;98580.56;;;12.93;63.20
69624;BME280;56843;52.020;5.670;2023-03-14T05:21:07;98588.59;;;12.93;63.18
69624;BME280;56843;52.020;5.670;2023-03-14T05:23:03;98592.06;;;12.93;63.17
69624;BME280;56843;52.020;5.670;2023-03-14T05:24:57;98596.28;;;12.94;63.11
69624;BME280;56843;52.020;5.670;2023-03-14T05:26:51;98584.78;;;12.94;63.35
69624;BME280;56843;52.020;5.670;2023-03-14T05:28:40;98589.75;;;12.95;62.99
69624;BME280;56843;52.020;5.670;2023-03-14T05:30:25;98587.06;;;12.95;62.74
69624;BME280;56843;52.020;5.670;2023-03-14T05:32:16;98590.13;;;12.94;63.06
69624;BME280;56843;52.020;5.670;2023-03-14T05:33:56;98590.50;;;12.96;63.01
69624;BME280;56843;52.020;5.670;2023-03-14T05:35:46;98596.28;;;12.94;63.04
69624;BME280;56843;52.020;5.670;2023-03-14T05:37:36;98596.63;;;12.93;63.26
69624;BME280;56843;52.020;5.670;2023-03-14T05:39:25;98588.59;;;12.93;62.97
69624;BME280;56843;52.020;5.670;2023-03-14T05:41:05;98592.06;;;12.93;63.10
69624;BME280;56843;52.020;5.670;2023-03-14T05:42:54;98590.13;;;12.94;63.27
69624;BME280;56843;52.020;5.670;2023-03-14T05:44:40;98591.28;;;12.93;63.26
69624;BME280;56843;52.020;5.670;2023-03-14T05:46:44;98588.59;;;12.93;63.41
69624;BME280;56843;52.020;5.670;2023-03-14T05:48:29;98582.88;;;12.94;63.19
69624;BME280;56843;52.020;5.670;2023-03-14T05:50:12;98580.94;;;12.95;63.25
69624;BME280;56843;52.020;5.670;2023-03-14T05:52:18;98579.44;;;12.94;63.61
69624;BME280;56843;52.020;5.670;2023-03-14T05:54:00;98578.25;;;12.95;63.50
69624;BME280;56843;52.020;5.670;2023-03-14T05:55:58;98573.28;;;12.97;63.75
69624;BME280;56843;52.020;5.670;2023-03-14T05:57:39;98584.00;;;12.97;63.63
69624;BME280;56843;52.020;5.670;2023-03-14T05:59:23;98582.84;;;13.01;63.66
69624;BME280;56843;52.020;5.670;2023-03-14T06:01:04;98567.13;;;13.00;63.54
69624;BME280;56843;52.020;5.670;2023-03-14T06:02:58;98568.66;;;13.01;63.56
69624;BME280;56843;52.020;5.670;2023-03-14T06:04:34;98565.59;;;13.02;63.51
69624;BME280;56843;52.020;5.670;2023-03-14T06:06:04;98575.91;;;13.04;63.22
69624;BME280;56843;52.020;5.670;2023-03-14T06:07:35;98567.88;;;13.04;63.54
69624;BME280;56843;52.020;5.670;2023-03-14T06:09:08;98569.03;;;13.03;63.61
69624;BME280;56843;52.020;5.670;2023-03-14T06:10:42;98569.44;;;13.01;63.65
69624;BME280;56843;52.020;5.670;2023-03-14T06:12:12;98568.28;;;13.02;63.46
69624;BME280;56843;52.020;5.670;2023-03-14T06:13:47;98560.25;;;12.99;63.65
69624;BME280;56843;52.020;5.670;2023-03-14T06:15:18;98565.22;;;13.00;63.76
69624;BME280;56843;52.020;5.670;2023-03-14T06:16:52;98568.66;;;13.01;63.63
69624;BME280;56843;52.020;5.670;2023-03-14T06:18:24;98571.72;;;12.99;63.52
69624;BME280;56843;52.020;5.670;2023-03-14T06:19:55;98568.69;;;12.97;63.90
69624;BME280;56843;52.020;5.670;2023-03-14T06:21:25;98575.56;;;12.98;63.93
69624;BME280;56843;52.020;5.670;2023-03-14T06:22:56;98572.13;;;12.98;63.75
69624;BME280;56843;52.020;5.670;2023-03-14T06:24:26;98570.22;;;12.98;64.06
69624;BME280;56843;52.020;5.670;2023-03-14T06:25:57;98576.34;;;12.99;64.19
69624;BME280;56843;52.020;5.670;2023-03-14T06:27:29;98572.50;;;13.00;63.76
69624;BME280;56843;52.020;5.670;2023-03-14T06:29:01;98577.47;;;13.01;63.89
69624;BME280;56843;52.020;5.670;2023-03-14T06:30:34;98567.91;;;13.00;64.00
69624;BME280;56843;52.020;5.670;2023-03-14T06:32:04;98573.25;;;13.00;63.97
69624;BME280;56843;52.020;5.670;2023-03-14T06:33:35;98565.63;;;12.99;64.04
69624;BME280;56843;52.020;5.670;2023-03-14T06:35:07;98574.41;;;12.99;64.22
69624;BME280;56843;52.020;5.670;2023-03-14T06:36:41;98582.44;;;12.99;64.22
69624;BME280;56843;52.020;5.670;2023-03-14T06:38:12;98568.31;;;12.99;64.11
69624;BME280;56843;52.020;5.670;2023-03-14T06:39:42;98566.75;;;12.98;64.09
69624;BME280;56843;52.020;5.670;2023-03-14T06:41:22;98568.69;;;12.97;64.08
69624;BME280;56843;52.020;5.670;2023-03-14T06:42:56;98575.97;;;12.97;64.16
69624;BME280;56843;52.020;5.670;2023-03-14T06:44:27;98564.50;;;12.96;64.22
69624;BME280;56843;52.020;5.670;2023-03-14T06:45:58;98567.94;;;12.97;64.51
69624;BME280;56843;52.020;5.670;2023-03-14T06:47:28;98569.44;;;12.98;64.23
69624;BME280;56843;52.020;5.670;2023-03-14T06:49:02;98577.13;;;12.96;64.23
69624;BME280;56843;52.020;5.670;2023-03-14T06:50:33;98577.47;;;12.98;64.39
69624;BME280;56843;52.020;5.670;2023-03-14T06:52:03;98577.88;;;12.96;64.22
69624;BME280;56843;52.020;5.670;2023-03-14T06:53:34;98585.53;;;12.98;64.55
69624;BME280;56843;52.020;5.670;2023-03-14T06:55:07;98574.03;;;12.97;64.64
69624;BME280;56843;52.020;5.670;2023-03-14T06:56:38;98580.94;;;12.95;64.22
69624;BME280;56843;52.020;5.670;2023-03-14T06:58:08;98584.75;;;12.97;64.49
69624;BME280;56843;52.020;5.670;2023-03-14T06:59:44;98578.66;;;12.97;64.38
69624;BME280;56843;52.020;5.670;2023-03-14T07:01:24;98582.84;;;12.98;64.46
69624;BME280;56843;52.020;5.670;2023-03-14T07:02:55;98592.41;;;12.95;64.35
69624;BME280;56843;52.020;5.670;2023-03-14T07:04:33;98608.91;;;12.94;64.58
69624;BME280;56843;52.020;5.670;2023-03-14T07:06:03;98628.41;;;12.94;64.52
69624;BME280;56843;52.020;5.670;2023-03-14T07:07:37;98644.88;;;12.96;64.62
69624;BME280;56843;52.020;5.670;2023-03-14T07:09:07;98644.47;;;12.98;64.64
69624;BME280;56843;52.020;5.670;2023-03-14T07:10:41;98646.75;;;12.99;64.93
69624;BME280;56843;52.020;5.670;2023-03-14T07:12:12;98670.09;;;13.02;64.81
69624;BME280;56843;52.020;5.670;2023-03-14T07:13:43;98662.44;;;13.04;65.03
69624;BME280;56843;52.020;5.670;2023-03-14T07:15:14;98675.06;;;13.07;64.75
69624;BME280;56843;52.020;5.670;2023-03-14T07:16:45;98693.00;;;13.10;64.62
69624;BME280;56843;52.020;5.670;2023-03-14T07:18:16;98692.66;;;13.12;64.71
69624;BME280;56843;52.020;5.670;2023-03-14T07:19:46;98693.00;;;13.14;64.79
69624;BME280;56843;52.020;5.670;2023-03-14T07:21:17;98710.25;;;13.16;64.80
69624;BME280;56843;52.020;5.670;2023-03-14T07:22:48;98708.69;;;13.19;64.52
69624;BME280;56843;52.020;5.670;2023-03-14T07:24:20;98712.13;;;13.19;64.76
69624;BME280;56843;52.020;5.670;2023-03-14T07:25:51;98705.22;;;13.22;64.38
69624;BME280;56843;52.020;5.670;2023-03-14T07:27:24;98721.31;;;13.25;64.67
69624;BME280;56843;52.020;5.670;2023-03-14T07:28:55;98732.41;;;13.27;64.49
69624;BME280;56843;52.020;5.670;2023-03-14T07:30:26;98730.84;;;13.30;64.69
69624;BME280;56843;52.020;5.670;2023-03-14T07:31:58;98738.50;;;13.32;63.91
69624;BME280;56843;52.020;5.670;2023-03-14T07:33:28;98728.91;;;13.34;64.21
69624;BME280;56843;52.020;5.670;2023-03-14T07:34:59;98738.47;;;13.35;63.97
69624;BME280;56843;52.020;5.670;2023-03-14T07:36:29;98740.78;;;13.37;64.29
69624;BME280;56843;52.020;5.670;2023-03-14T07:38:00;98744.22;;;13.37;64.09
69624;BME280;56843;52.020;5.670;2023-03-14T07:39:37;98754.94;;;13.37;64.06
69624;BME280;56843;52.020;5.670;2023-03-14T07:41:12;98772.94;;;13.40;63.82
69624;BME280;56843;52.020;5.670;2023-03-14T07:43:06;98784.78;;;13.39;63.91
69624;BME280;56843;52.020;5.670;2023-03-14T07:44:50;98792.09;;;13.39;63.56
69624;BME280;56843;52.020;5.670;2023-03-14T07:46:21;98796.66;;;13.42;63.63
69624;BME280;56843;52.020;5.670;2023-03-14T07:47:51;98806.25;;;13.43;63.54
69624;BME280;56843;52.020;5.670;2023-03-14T07:49:22;98801.66;;;13.43;63.72
69624;BME280;56843;52.020;5.670;2023-03-14T07:50:53;98811.97;;;13.45;63.55
69624;BME280;56843;52.020;5.670;2023-03-14T07:52:24;98823.47;;;13.45;63.71
69624;BME280;56843;52.020;5.670;2023-03-14T07:53:55;98828.84;;;13.45;63.24
69624;BME280;56843;52.020;5.670;2023-03-14T07:55:25;98841.06;;;13.46;63.69
69624;BME280;56843;52.020;5.670;2023-03-14T07:56:56;98839.94;;;13.47;63.38
69624;BME280;56843;52.020;5.670;2023-03-14T07:58:29;98852.19;;;13.48;63.20
69624;BME280;56843;52.020;5.670;2023-03-14T07:59:59;98850.28;;;13.49;63.35
69624;BME280;56843;52.020;5.670;2023-03-14T08:01:30;98853.72;;;13.49;63.36
69624;BME280;56843;52.020;5.670;2023-03-14T08:03:00;98851.81;;;13.50;62.93
69624;BME280;56843;52.020;5.670;2023-03-14T08:04:31;98860.59;;;13.50;63.19
69624;BME280;56843;52.020;5.670;2023-03-14T08:06:01;98866.72;;;13.51;63.00
69624;BME280;56843;52.020;5.670;2023-03-14T08:07:31;98869.41;;;13.51;63.03
69624;BME280;56843;52.020;5.670;2023-03-14T08:09:03;98866.38;;;13.52;62.73
69624;BME280;56843;52.020;5.670;2023-03-14T08:10:33;98883.56;;;13.55;63.08
69624;BME280;56843;52.020;5.670;2023-03-14T08:12:04;98885.50;;;13.54;62.82
69624;BME280;56843;52.020;5.670;2023-03-14T08:13:36;98888.94;;;13.55;62.99
69624;BME280;56843;52.020;5.670;2023-03-14T08:15:10;98898.13;;;13.57;62.74
69624;BME280;56843;52.020;5.670;2023-03-14T08:16:40;98907.72;;;13.58;62.73
69624;BME280;56843;52.020;5.670;2023-03-14T08:18:11;98900.44;;;13.59;62.68
69624;BME280;56843;52.020;5.670;2023-03-14T08:19:41;98917.66;;;13.61;62.48
69624;BME280;56843;52.020;5.670;2023-03-14T08:21:12;98908.47;;;13.62;62.86
69624;BME280;56843;52.020;5.670;2023-03-14T08:22:43;98922.66;;;13.63;62.81
69624;BME280;56843;52.020;5.670;2023-03-14T08:24:14;98927.63;;;13.64;62.58
69624;BME280;56843;52.020;5.670;2023-03-14T08:25:44;98937.56;;;13.64;62.36
69624;BME280;56843;52.020;5.670;2023-03-14T08:27:15;98938.34;;;13.64;62.62
69624;BME280;56843;52.020;5.670;2023-03-14T08:28:45;98953.31;;;13.65;62.52